sensor_id;sensor_type;location;lat;lon;timestamp;pressure;altitude;pressure_sealevel;temperature;humidity
67931;BME280;54726;52.000;5.954;2022-08-01T00:00:42;101219.44;;;17.99;94.93
67931;BME280;54726;52.000;5.954;2022-08-01T00:01:42;101219.53;;;17.97;94.87
67931;BME280;54726;52.000;5.954;2022-08-01T00:02:43;101216.09;;;17.95;94.48
67931;BME280;54726;52.000;5.954;2022-08-01T00:03:43;101226.81;;;17.95;94.69
67931;BME280;54726;52.000;5.954;2022-08-01T00:04:44;101234.13;;;17.93;94.61
67931;BME280;54726;52.000;5.954;2022-08-01T00:05:44;101227.91;;;17.93;94.68
67931;BME280;54726;52.000;5.954;2022-08-01T00:06:44;101234.34;;;17.90;94.57
67931;BME280;54726;52.000;5.954;2022-08-01T00:07:45;101234.22;;;17.92;94.56
67931;BME280;54726;52.000;5.954;2022-08-01T00:08:45;101236.03;;;17.91;94.38
67931;BME280;54726;52.000;5.954;2022-08-01T00:09:46;101239.59;;;17.92;94.44
67931;BME280;54726;52.000;5.954;2022-08-01T00:10:48;101234.34;;;17.90;94.66
67931;BME280;54726;52.000;5.954;2022-08-01T00:11:48;101237.75;;;17.92;94.69
67931;BME280;54726;52.000;5.954;2022-08-01T00:12:48;101213.81;;;17.75;94.75
67931;BME280;54726;52.000;5.954;2022-08-01T00:13:49;101229.16;;;17.87;94.82
67931;BME280;54726;52.000;5.954;2022-08-01T00:14:49;101230.13;;;17.86;94.70
67931;BME280;54726;52.000;5.954;2022-08-01T00:15:50;101234.53;;;17.87;94.53
67931;BME280;54726;52.000;5.954;2022-08-01T00:16:50;101236.25;;;17.88;94.70
67931;BME280;54726;52.000;5.954;2022-08-01T00:17:51;101241.63;;;17.88;94.77
67931;BME280;54726;52.000;5.954;2022-08-01T00:18:51;101231.84;;;17.87;94.54
67931;BME280;54726;52.000;5.954;2022-08-01T00:19:52;101228.59;;;17.82;94.62
67931;BME280;54726;52.000;5.954;2022-08-01T00:20:52;101217.28;;;17.77;94.60
67931;BME280;54726;52.000;5.954;2022-08-01T00:21:53;101239.72;;;17.90;94.60
67931;BME280;54726;52.000;5.954;2022-08-01T00:22:53;101231.66;;;17.90;94.39
67931;BME280;54726;52.000;5.954;2022-08-01T00:23:54;101230.69;;;17.91;94.75
67931;BME280;54726;52.000;5.954;2022-08-01T00:24:54;101230.03;;;17.87;94.56
67931;BME280;54726;52.000;5.954;2022-08-01T00:25:56;101231.94;;;17.85;94.87
67931;BME280;54726;52.000;5.954;2022-08-01T00:26:56;101223.44;;;17.79;94.64
67931;BME280;54726;52.000;5.954;2022-08-01T00:27:57;101230.13;;;17.86;94.94
67931;BME280;54726;52.000;5.954;2022-08-01T00:28:57;101238.16;;;17.86;94.58
67931;BME280;54726;52.000;5.954;2022-08-01T00:29:58;101235.47;;;17.86;94.88
67931;BME280;54726;52.000;5.954;2022-08-01T00:30:59;101233.00;;;17.83;94.85
67931;BME280;54726;52.000;5.954;2022-08-01T00:31:59;101239.91;;;17.87;94.54
67931;BME280;54726;52.000;5.954;2022-08-01T00:33:00;101235.47;;;17.86;94.62
67931;BME280;54726;52.000;5.954;2022-08-01T00:34:00;101235.41;;;17.87;94.67
67931;BME280;54726;52.000;5.954;2022-08-01T00:35:01;101238.94;;;17.88;94.63
67931;BME280;54726;52.000;5.954;2022-08-01T00:36:01;101231.28;;;17.82;94.78
67931;BME280;54726;52.000;5.954;2022-08-01T00:37:02;101240.75;;;17.87;94.71
67931;BME280;54726;52.000;5.954;2022-08-01T00:38:02;101237.31;;;17.85;94.53
67931;BME280;54726;52.000;5.954;2022-08-01T00:39:03;101241.69;;;17.86;94.52
67931;BME280;54726;52.000;5.954;2022-08-01T00:40:04;101234.72;;;17.84;94.78
67931;BME280;54726;52.000;5.954;2022-08-01T00:41:06;101237.31;;;17.85;94.76
67931;BME280;54726;52.000;5.954;2022-08-01T00:42:08;101241.81;;;17.85;94.54
67931;BME280;54726;52.000;5.954;2022-08-01T00:43:09;101236.75;;;17.80;94.56
67931;BME280;54726;52.000;5.954;2022-08-01T00:44:09;101238.28;;;17.84;95.05
67931;BME280;54726;52.000;5.954;2022-08-01T00:45:10;101239.22;;;17.83;94.52
67931;BME280;54726;52.000;5.954;2022-08-01T00:46:10;101241.91;;;17.83;94.87
67931;BME280;54726;52.000;5.954;2022-08-01T00:47:11;101238.56;;;17.80;94.87
67931;BME280;54726;52.000;5.954;2022-08-01T00:48:11;101238.38;;;17.83;94.80
67931;BME280;54726;52.000;5.954;2022-08-01T00:49:12;101239.34;;;17.82;94.43
67931;BME280;54726;52.000;5.954;2022-08-01T00:50:12;101237.72;;;17.79;94.47
67931;BME280;54726;52.000;5.954;2022-08-01T00:51:13;101228.97;;;17.76;94.90
67931;BME280;54726;52.000;5.954;2022-08-01T00:52:13;101233.19;;;17.80;94.94
67931;BME280;54726;52.000;5.954;2022-08-01T00:53:14;101231.38;;;17.80;94.56
67931;BME280;54726;52.000;5.954;2022-08-01T00:54:15;101240.28;;;17.81;94.62
67931;BME280;54726;52.000;5.954;2022-08-01T00:55:16;101232.22;;;17.81;95.00
67931;BME280;54726;52.000;5.954;2022-08-01T00:56:21;101234.91;;;17.81;94.52
67931;BME280;54726;52.000;5.954;2022-08-01T00:57:21;101233.28;;;17.78;94.94
67931;BME280;54726;52.000;5.954;2022-08-01T00:58:22;101236.66;;;17.82;94.86
67931;BME280;54726;52.000;5.954;2022-08-01T00:59:23;101233.84;;;17.83;94.62
67931;BME280;54726;52.000;5.954;2022-08-01T01:00:24;101232.03;;;17.84;94.36
67931;BME280;54726;52.000;5.954;2022-08-01T01:01:24;101224.19;;;17.81;94.77
67931;BME280;54726;52.000;5.954;2022-08-01T01:02:25;101233.78;;;17.85;94.37
67931;BME280;54726;52.000;5.954;2022-08-01T01:03:26;101227.44;;;17.86;94.31
67931;BME280;54726;52.000;5.954;2022-08-01T01:04:26;101235.69;;;17.83;94.21
67931;BME280;54726;52.000;5.954;2022-08-01T01:05:26;101231.38;;;17.80;94.87
67931;BME280;54726;52.000;5.954;2022-08-01T01:06:34;101231.50;;;17.79;94.95
67931;BME280;54726;52.000;5.954;2022-08-01T01:07:44;101228.22;;;17.74;94.66
67931;BME280;54726;52.000;5.954;2022-08-01T01:08:55;101231.84;;;17.73;94.80
67931;BME280;54726;52.000;5.954;2022-08-01T01:10:03;101231.84;;;17.73;94.60
67931;BME280;54726;52.000;5.954;2022-08-01T01:11:11;101228.41;;;17.71;94.93
67931;BME280;54726;52.000;5.954;2022-08-01T01:12:28;101230.53;;;17.65;94.78
67931;BME280;54726;52.000;5.954;2022-08-01T01:13:35;101234.81;;;17.68;94.89
67931;BME280;54726;52.000;5.954;2022-08-01T01:14:41;101232.22;;;17.66;95.10
67931;BME280;54726;52.000;5.954;2022-08-01T01:15:47;101237.72;;;17.65;95.01
67931;BME280;54726;52.000;5.954;2022-08-01T01:16:48;101231.56;;;17.63;94.58
67931;BME280;54726;52.000;5.954;2022-08-01T01:17:55;101239.53;;;17.64;95.09
67931;BME280;54726;52.000;5.954;2022-08-01T01:19:00;101236.84;;;17.64;94.64
67931;BME280;54726;52.000;5.954;2022-08-01T01:20:03;101236.94;;;17.63;94.91
67931;BME280;54726;52.000;5.954;2022-08-01T01:21:09;101237.91;;;17.62;94.61
67931;BME280;54726;52.000;5.954;2022-08-01T01:22:22;101226.69;;;17.55;94.66
67931;BME280;54726;52.000;5.954;2022-08-01T01:23:37;101223.34;;;17.52;94.68
67931;BME280;54726;52.000;5.954;2022-08-01T01:24:46;101245.19;;;17.60;94.27
67931;BME280;54726;52.000;5.954;2022-08-01T01:26:17;101236.28;;;17.59;95.22
67931;BME280;54726;52.000;5.954;2022-08-01T01:27:26;101246.16;;;17.59;94.41
67931;BME280;54726;52.000;5.954;2022-08-01T01:28:34;101244.34;;;17.59;94.41
67931;BME280;54726;52.000;5.954;2022-08-01T01:29:40;101240.03;;;17.57;94.51
67931;BME280;54726;52.000;5.954;2022-08-01T01:30:43;101225.25;;;17.50;94.32
67931;BME280;54726;52.000;5.954;2022-08-01T01:31:49;101248.72;;;17.60;94.48
67931;BME280;54726;52.000;5.954;2022-08-01T01:32:52;101247.75;;;17.61;94.20
67931;BME280;54726;52.000;5.954;2022-08-01T01:33:53;101243.28;;;17.62;94.46
67931;BME280;54726;52.000;5.954;2022-08-01T01:34:56;101245.06;;;17.61;94.52
67931;BME280;54726;52.000;5.954;2022-08-01T01:35:59;101241.53;;;17.61;94.56
67931;BME280;54726;52.000;5.954;2022-08-01T01:37:01;101242.38;;;17.61;94.42
67931;BME280;54726;52.000;5.954;2022-08-01T01:38:06;101239.81;;;17.60;94.50
67931;BME280;54726;52.000;5.954;2022-08-01T01:39:08;101237.03;;;17.61;94.44
67931;BME280;54726;52.000;5.954;2022-08-01T01:40:11;101231.00;;;17.58;94.64
67931;BME280;54726;52.000;5.954;2022-08-01T01:41:14;101222.59;;;17.50;94.62
67931;BME280;54726;52.000;5.954;2022-08-01T01:42:16;101242.38;;;17.61;94.95
67931;BME280;54726;52.000;5.954;2022-08-01T01:43:17;101245.06;;;17.61;94.90
67931;BME280;54726;52.000;5.954;2022-08-01T01:44:19;101246.25;;;17.57;94.78
67931;BME280;54726;52.000;5.954;2022-08-01T01:45:21;101244.41;;;17.58;94.94
67931;BME280;54726;52.000;5.954;2022-08-01T01:46:24;101244.53;;;17.56;94.81
67931;BME280;54726;52.000;5.954;2022-08-01T01:47:27;101247.22;;;17.56;95.09
67931;BME280;54726;52.000;5.954;2022-08-01T01:48:28;101236.69;;;17.53;94.99
67931;BME280;54726;52.000;5.954;2022-08-01T01:49:30;101248.94;;;17.57;95.07
67931;BME280;54726;52.000;5.954;2022-08-01T01:50:32;101236.47;;;17.56;94.92
67931;BME280;54726;52.000;5.954;2022-08-01T01:51:33;101229.31;;;17.42;94.96
67931;BME280;54726;52.000;5.954;2022-08-01T01:52:33;101251.03;;;17.52;95.03
67931;BME280;54726;52.000;5.954;2022-08-01T01:53:35;101245.88;;;17.49;94.83
67931;BME280;54726;52.000;5.954;2022-08-01T01:54:40;101231.88;;;17.44;95.10
67931;BME280;54726;52.000;5.954;2022-08-01T01:55:45;101246.91;;;17.47;95.24
67931;BME280;54726;52.000;5.954;2022-08-01T01:56:47;101254.75;;;17.50;95.25
67931;BME280;54726;52.000;5.954;2022-08-01T01:57:49;101246.63;;;17.51;95.30
67931;BME280;54726;52.000;5.954;2022-08-01T01:58:52;101248.47;;;17.51;95.40
67931;BME280;54726;52.000;5.954;2022-08-01T01:59:54;101238.00;;;17.46;95.18
67931;BME280;54726;52.000;5.954;2022-08-01T02:00:58;101252.09;;;17.50;94.82
67931;BME280;54726;52.000;5.954;2022-08-01T02:02:02;101243.38;;;17.46;95.07
67931;BME280;54726;52.000;5.954;2022-08-01T02:03:05;101244.34;;;17.45;95.38
67931;BME280;54726;52.000;5.954;2022-08-01T02:04:07;101243.47;;;17.44;95.48
67931;BME280;54726;52.000;5.954;2022-08-01T02:05:10;101241.75;;;17.43;95.16
67931;BME280;54726;52.000;5.954;2022-08-01T02:06:13;101246.25;;;17.43;95.34
67931;BME280;54726;52.000;5.954;2022-08-01T02:07:21;101240.91;;;17.43;95.13
67931;BME280;54726;52.000;5.954;2022-08-01T02:08:23;101239.16;;;17.42;95.28
67931;BME280;54726;52.000;5.954;2022-08-01T02:09:26;101235.16;;;17.35;95.31
67931;BME280;54726;52.000;5.954;2022-08-01T02:10:28;101250.75;;;17.42;95.47
67931;BME280;54726;52.000;5.954;2022-08-01T02:11:30;101224.69;;;17.30;95.55
67931;BME280;54726;52.000;5.954;2022-08-01T02:12:33;101241.75;;;17.43;95.03
67931;BME280;54726;52.000;5.954;2022-08-01T02:13:36;101239.16;;;17.42;95.14
67931;BME280;54726;52.000;5.954;2022-08-01T02:14:38;101249.03;;;17.41;95.30
67931;BME280;54726;52.000;5.954;2022-08-01T02:15:39;101250.97;;;17.39;95.22
67931;BME280;54726;52.000;5.954;2022-08-01T02:16:43;101253.72;;;17.38;95.64
67931;BME280;54726;52.000;5.954;2022-08-01T02:17:47;101250.25;;;17.36;95.60
67931;BME280;54726;52.000;5.954;2022-08-01T02:18:48;101252.00;;;17.37;95.72
67931;BME280;54726;52.000;5.954;2022-08-01T02:19:49;101258.31;;;17.36;95.85
67931;BME280;54726;52.000;5.954;2022-08-01T02:20:50;101246.47;;;17.26;95.49
67931;BME280;54726;52.000;5.954;2022-08-01T02:21:56;101254.13;;;17.32;95.90
67931;BME280;54726;52.000;5.954;2022-08-01T02:23:00;101255.81;;;17.33;95.91
67931;BME280;54726;52.000;5.954;2022-08-01T02:24:07;101254.00;;;17.33;95.63
67931;BME280;54726;52.000;5.954;2022-08-01T02:25:12;101250.47;;;17.33;95.77
67931;BME280;54726;52.000;5.954;2022-08-01T02:26:17;101251.44;;;17.32;96.07
67931;BME280;54726;52.000;5.954;2022-08-01T02:27:22;101254.13;;;17.32;95.76
67931;BME280;54726;52.000;5.954;2022-08-01T02:28:28;101250.47;;;17.33;95.57
67931;BME280;54726;52.000;5.954;2022-08-01T02:29:36;101255.75;;;17.34;95.80
67931;BME280;54726;52.000;5.954;2022-08-01T02:30:40;101248.63;;;17.33;95.78
67931;BME280;54726;52.000;5.954;2022-08-01T02:31:44;101240.03;;;17.28;95.63
67931;BME280;54726;52.000;5.954;2022-08-01T02:32:49;101248.63;;;17.33;95.88
67931;BME280;54726;52.000;5.954;2022-08-01T02:33:56;101246.94;;;17.32;95.78
67931;BME280;54726;52.000;5.954;2022-08-01T02:35:00;101244.31;;;17.31;95.79
67931;BME280;54726;52.000;5.954;2022-08-01T02:36:02;101249.69;;;17.31;95.80
67931;BME280;54726;52.000;5.954;2022-08-01T02:37:04;101240.78;;;17.30;96.10
67931;BME280;54726;52.000;5.954;2022-08-01T02:38:05;101246.16;;;17.30;95.71
67931;BME280;54726;52.000;5.954;2022-08-01T02:39:11;101244.31;;;17.31;96.09
67931;BME280;54726;52.000;5.954;2022-08-01T02:40:14;101246.94;;;17.32;96.27
67931;BME280;54726;52.000;5.954;2022-08-01T02:41:19;101250.66;;;17.30;96.32
67931;BME280;54726;52.000;5.954;2022-08-01T02:42:22;101249.13;;;17.26;96.51
67931;BME280;54726;52.000;5.954;2022-08-01T02:43:26;101247.31;;;17.26;96.55
67931;BME280;54726;52.000;5.954;2022-08-01T02:44:31;101246.34;;;17.27;96.63
67931;BME280;54726;52.000;5.954;2022-08-01T02:45:33;101242.88;;;17.25;96.34
67931;BME280;54726;52.000;5.954;2022-08-01T02:46:38;101249.81;;;17.29;96.59
67931;BME280;54726;52.000;5.954;2022-08-01T02:47:42;101252.38;;;17.31;96.53
67931;BME280;54726;52.000;5.954;2022-08-01T02:48:43;101252.38;;;17.31;96.48
67931;BME280;54726;52.000;5.954;2022-08-01T02:49:46;101251.44;;;17.32;96.56
67931;BME280;54726;52.000;5.954;2022-08-01T02:50:48;101254.97;;;17.32;96.42
67931;BME280;54726;52.000;5.954;2022-08-01T02:51:50;101248.94;;;17.29;96.25
67931;BME280;54726;52.000;5.954;2022-08-01T02:52:54;101253.44;;;17.28;96.69
67931;BME280;54726;52.000;5.954;2022-08-01T02:53:56;101237.06;;;17.18;97.08
67931;BME280;54726;52.000;5.954;2022-08-01T02:55:00;101256.22;;;17.27;97.23
67931;BME280;54726;52.000;5.954;2022-08-01T02:56:02;101243.97;;;17.22;97.06
67931;BME280;54726;52.000;5.954;2022-08-01T02:57:06;101250.84;;;17.27;96.84
67931;BME280;54726;52.000;5.954;2022-08-01T02:58:09;101260.59;;;17.28;97.42
67931;BME280;54726;52.000;5.954;2022-08-01T02:59:13;101262.53;;;17.26;97.15
67931;BME280;54726;52.000;5.954;2022-08-01T03:00:15;101262.44;;;17.27;97.01
67931;BME280;54726;52.000;5.954;2022-08-01T03:01:17;101235.75;;;17.11;97.07
67931;BME280;54726;52.000;5.954;2022-08-01T03:02:18;101260.59;;;17.28;97.31
67931;BME280;54726;52.000;5.954;2022-08-01T03:03:21;101261.56;;;17.27;97.43
67931;BME280;54726;52.000;5.954;2022-08-01T03:04:23;101266.84;;;17.28;97.00
67931;BME280;54726;52.000;5.954;2022-08-01T03:05:24;101257.94;;;17.28;97.13
67931;BME280;54726;52.000;5.954;2022-08-01T03:06:26;101257.19;;;17.26;97.26
67931;BME280;54726;52.000;5.954;2022-08-01T03:07:28;101250.94;;;17.25;97.09
67931;BME280;54726;52.000;5.954;2022-08-01T03:08:30;101250.84;;;17.27;97.21
67931;BME280;54726;52.000;5.954;2022-08-01T03:09:35;101254.38;;;17.27;97.45
67931;BME280;54726;52.000;5.954;2022-08-01T03:10:38;101257.19;;;17.26;97.43
67931;BME280;54726;52.000;5.954;2022-08-01T03:11:41;101257.00;;;17.29;97.25
67931;BME280;54726;52.000;5.954;2022-08-01T03:12:42;101249.22;;;17.24;97.51
67931;BME280;54726;52.000;5.954;2022-08-01T03:13:45;101251.91;;;17.24;97.72
67931;BME280;54726;52.000;5.954;2022-08-01T03:14:49;101254.59;;;17.24;97.83
67931;BME280;54726;52.000;5.954;2022-08-01T03:15:53;101249.13;;;17.26;97.60
67931;BME280;54726;52.000;5.954;2022-08-01T03:16:54;101246.47;;;17.26;97.65
67931;BME280;54726;52.000;5.954;2022-08-01T03:17:56;101236.28;;;17.16;97.40
67931;BME280;54726;52.000;5.954;2022-08-01T03:19:01;101254.59;;;17.24;97.51
67931;BME280;54726;52.000;5.954;2022-08-01T03:20:03;101257.38;;;17.22;97.66
67931;BME280;54726;52.000;5.954;2022-08-01T03:21:05;101261.78;;;17.23;97.44
67931;BME280;54726;52.000;5.954;2022-08-01T03:22:08;101245.09;;;17.18;97.52
67931;BME280;54726;52.000;5.954;2022-08-01T03:23:11;101255.44;;;17.25;97.52
67931;BME280;54726;52.000;5.954;2022-08-01T03:24:12;101258.13;;;17.25;97.44
67931;BME280;54726;52.000;5.954;2022-08-01T03:25:15;101253.72;;;17.23;97.57
67931;BME280;54726;52.000;5.954;2022-08-01T03:26:17;101260.91;;;17.23;97.51
67931;BME280;54726;52.000;5.954;2022-08-01T03:27:19;101261.00;;;17.21;97.70
67931;BME280;54726;52.000;5.954;2022-08-01T03:28:21;101263.69;;;17.21;97.85
67931;BME280;54726;52.000;5.954;2022-08-01T03:29:24;101261.09;;;17.20;97.44
67931;BME280;54726;52.000;5.954;2022-08-01T03:30:27;101264.66;;;17.20;97.88
67931;BME280;54726;52.000;5.954;2022-08-01T03:31:28;101258.31;;;17.21;97.48
67931;BME280;54726;52.000;5.954;2022-08-01T03:32:30;101250.38;;;17.20;97.62
67931;BME280;54726;52.000;5.954;2022-08-01T03:33:31;101251.13;;;17.22;97.67
67931;BME280;54726;52.000;5.954;2022-08-01T03:34:32;101241.38;;;17.21;97.68
67931;BME280;54726;52.000;5.954;2022-08-01T03:35:36;101253.91;;;17.20;97.66
67931;BME280;54726;52.000;5.954;2022-08-01T03:36:43;101246.81;;;17.19;97.56
67931;BME280;54726;52.000;5.954;2022-08-01T03:37:46;101249.50;;;17.19;97.94
67931;BME280;54726;52.000;5.954;2022-08-01T03:38:49;101246.81;;;17.19;97.84
67931;BME280;54726;52.000;5.954;2022-08-01T03:39:55;101252.94;;;17.21;97.79
67931;BME280;54726;52.000;5.954;2022-08-01T03:41:02;101250.47;;;17.18;97.60
67931;BME280;54726;52.000;5.954;2022-08-01T03:42:09;101256.78;;;17.17;97.95
67931;BME280;54726;52.000;5.954;2022-08-01T03:43:16;101250.66;;;17.15;97.67
67931;BME280;54726;52.000;5.954;2022-08-01T03:44:24;101240.41;;;17.08;97.46
67931;BME280;54726;52.000;5.954;2022-08-01T03:45:31;101253.34;;;17.15;97.66
67931;BME280;54726;52.000;5.954;2022-08-01T03:46:40;101250.66;;;17.15;97.84
67931;BME280;54726;52.000;5.954;2022-08-01T03:47:43;101248.16;;;17.12;97.48
67931;BME280;54726;52.000;5.954;2022-08-01T03:48:50;101251.63;;;17.14;97.74
67931;BME280;54726;52.000;5.954;2022-08-01T03:49:54;101249.22;;;17.10;97.95
67931;BME280;54726;52.000;5.954;2022-08-01T03:50:58;101251.91;;;17.10;97.58
67931;BME280;54726;52.000;5.954;2022-08-01T03:52:01;101251.91;;;17.10;97.84
67931;BME280;54726;52.000;5.954;2022-08-01T03:53:04;101245.69;;;17.09;97.78
67931;BME280;54726;52.000;5.954;2022-08-01T03:54:07;101251.03;;;17.09;97.58
67931;BME280;54726;52.000;5.954;2022-08-01T03:55:10;101247.59;;;17.07;97.70
67931;BME280;54726;52.000;5.954;2022-08-01T03:56:13;101252.94;;;17.07;98.19
67931;BME280;54726;52.000;5.954;2022-08-01T03:57:17;101254.78;;;17.07;97.78
67931;BME280;54726;52.000;5.954;2022-08-01T03:58:19;101255.63;;;17.07;97.91
67931;BME280;54726;52.000;5.954;2022-08-01T03:59:21;101260.03;;;17.08;98.08
67931;BME280;54726;52.000;5.954;2022-08-01T04:00:22;101248.44;;;17.08;98.01
67931;BME280;54726;52.000;5.954;2022-08-01T04:01:23;101259.28;;;17.06;97.68
67931;BME280;54726;52.000;5.954;2022-08-01T04:02:25;101253.06;;;17.06;97.78
67931;BME280;54726;52.000;5.954;2022-08-01T04:03:25;101249.59;;;17.04;98.21
67931;BME280;54726;52.000;5.954;2022-08-01T04:04:26;101254.78;;;17.07;97.77
67931;BME280;54726;52.000;5.954;2022-08-01T04:05:29;101260.13;;;17.07;97.84
67931;BME280;54726;52.000;5.954;2022-08-01T04:06:30;101258.31;;;17.07;97.98
67931;BME280;54726;52.000;5.954;2022-08-01T04:07:32;101263.66;;;17.07;98.01
67931;BME280;54726;52.000;5.954;2022-08-01T04:08:36;101259.28;;;17.06;97.92
67931;BME280;54726;52.000;5.954;2022-08-01T04:09:37;101261.94;;;17.06;97.99
67931;BME280;54726;52.000;5.954;2022-08-01T04:10:38;101253.06;;;17.06;97.71
67931;BME280;54726;52.000;5.954;2022-08-01T04:11:38;101253.22;;;17.03;97.82
67931;BME280;54726;52.000;5.954;2022-08-01T04:12:39;101260.41;;;17.02;97.90
67931;BME280;54726;52.000;5.954;2022-08-01T04:13:39;101256.78;;;17.03;98.09
67931;BME280;54726;52.000;5.954;2022-08-01T04:14:39;101256.88;;;17.02;97.83
67931;BME280;54726;52.000;5.954;2022-08-01T04:15:40;101253.41;;;16.99;98.19
67931;BME280;54726;52.000;5.954;2022-08-01T04:16:40;101262.22;;;17.02;98.32
67931;BME280;54726;52.000;5.954;2022-08-01T04:17:41;101267.59;;;17.02;98.03
67931;BME280;54726;52.000;5.954;2022-08-01T04:18:41;101265.75;;;17.02;98.04
67931;BME280;54726;52.000;5.954;2022-08-01T04:19:42;101261.38;;;17.01;98.07
67931;BME280;54726;52.000;5.954;2022-08-01T04:20:46;101252.75;;;16.96;98.24
67931;BME280;54726;52.000;5.954;2022-08-01T04:21:46;101259.81;;;16.97;98.37
67931;BME280;54726;52.000;5.954;2022-08-01T04:22:47;101263.28;;;16.99;98.13
67931;BME280;54726;52.000;5.954;2022-08-01T04:23:48;101265.00;;;17.00;97.93
67931;BME280;54726;52.000;5.954;2022-08-01T04:24:53;101273.06;;;17.00;98.56
67931;BME280;54726;52.000;5.954;2022-08-01T04:25:55;101270.38;;;17.00;98.40
67931;BME280;54726;52.000;5.954;2022-08-01T04:26:58;101265.00;;;17.00;98.15
67931;BME280;54726;52.000;5.954;2022-08-01T04:28:00;101265.00;;;17.00;98.34
67931;BME280;54726;52.000;5.954;2022-08-01T04:29:02;101263.28;;;16.99;98.24
67931;BME280;54726;52.000;5.954;2022-08-01T04:30:05;101265.00;;;17.00;98.46
67931;BME280;54726;52.000;5.954;2022-08-01T04:31:08;101271.22;;;17.00;98.05
67931;BME280;54726;52.000;5.954;2022-08-01T04:32:12;101264.44;;;16.95;98.52
67931;BME280;54726;52.000;5.954;2022-08-01T04:33:14;101272.28;;;16.98;98.02
67931;BME280;54726;52.000;5.954;2022-08-01T04:34:20;101260.69;;;16.97;98.34
67931;BME280;54726;52.000;5.954;2022-08-01T04:35:21;101265.88;;;17.00;98.45
67931;BME280;54726;52.000;5.954;2022-08-01T04:36:24;101268.56;;;17.00;98.33
67931;BME280;54726;52.000;5.954;2022-08-01T04:37:27;101266.72;;;17.01;98.29
67931;BME280;54726;52.000;5.954;2022-08-01T04:38:28;101272.09;;;17.01;98.53
67931;BME280;54726;52.000;5.954;2022-08-01T04:39:31;101272.09;;;17.01;98.31
67931;BME280;54726;52.000;5.954;2022-08-01T04:40:34;101272.88;;;17.03;98.32
67931;BME280;54726;52.000;5.954;2022-08-01T04:41:36;101274.56;;;17.04;97.93
67931;BME280;54726;52.000;5.954;2022-08-01T04:42:37;101276.28;;;17.05;98.49
67931;BME280;54726;52.000;5.954;2022-08-01T04:43:38;101278.88;;;17.07;98.08
67931;BME280;54726;52.000;5.954;2022-08-01T04:44:39;101277.19;;;17.06;97.96
67931;BME280;54726;52.000;5.954;2022-08-01T04:45:40;101268.44;;;17.02;98.08
67931;BME280;54726;52.000;5.954;2022-08-01T04:46:41;101282.44;;;17.07;98.12
67931;BME280;54726;52.000;5.954;2022-08-01T04:47:43;101274.38;;;17.07;98.40
67931;BME280;54726;52.000;5.954;2022-08-01T04:48:44;101275.34;;;17.06;98.21
67931;BME280;54726;52.000;5.954;2022-08-01T04:49:45;101277.06;;;17.07;98.16
67931;BME280;54726;52.000;5.954;2022-08-01T04:50:46;101272.47;;;17.09;98.11
67931;BME280;54726;52.000;5.954;2022-08-01T04:51:52;101279.56;;;17.10;98.32
67931;BME280;54726;52.000;5.954;2022-08-01T04:52:53;101282.03;;;17.13;98.10
67931;BME280;54726;52.000;5.954;2022-08-01T04:53:53;101288.97;;;17.17;98.06
67931;BME280;54726;52.000;5.954;2022-08-01T04:54:53;101288.00;;;17.18;97.77
67931;BME280;54726;52.000;5.954;2022-08-01T04:55:54;101289.72;;;17.19;97.79
67931;BME280;54726;52.000;5.954;2022-08-01T04:56:55;101288.97;;;17.17;97.87
67931;BME280;54726;52.000;5.954;2022-08-01T04:57:55;101293.94;;;17.23;97.90
67931;BME280;54726;52.000;5.954;2022-08-01T04:58:56;101288.56;;;17.23;97.69
67931;BME280;54726;52.000;5.954;2022-08-01T04:59:56;101300.94;;;17.26;97.85
67931;BME280;54726;52.000;5.954;2022-08-01T05:00:57;101293.94;;;17.23;97.94
67931;BME280;54726;52.000;5.954;2022-08-01T05:01:57;101304.66;;;17.23;97.95
67931;BME280;54726;52.000;5.954;2022-08-01T05:02:57;101296.88;;;17.19;97.83
67931;BME280;54726;52.000;5.954;2022-08-01T05:03:58;101301.00;;;17.25;98.32
67931;BME280;54726;52.000;5.954;2022-08-01T05:04:58;101304.47;;;17.27;98.05
67931;BME280;54726;52.000;5.954;2022-08-01T05:05:59;101294.91;;;17.22;98.11
67931;BME280;54726;52.000;5.954;2022-08-01T05:07:01;101296.50;;;17.25;98.19
67931;BME280;54726;52.000;5.954;2022-08-01T05:08:01;101298.13;;;17.28;97.98
67931;BME280;54726;52.000;5.954;2022-08-01T05:09:02;101300.81;;;17.28;98.18
67931;BME280;54726;52.000;5.954;2022-08-01T05:10:03;101300.81;;;17.28;98.17
67931;BME280;54726;52.000;5.954;2022-08-01T05:11:04;101298.91;;;17.30;98.22
67931;BME280;54726;52.000;5.954;2022-08-01T05:12:05;101309.75;;;17.28;97.96
67931;BME280;54726;52.000;5.954;2022-08-01T05:13:06;101306.19;;;17.28;98.34
67931;BME280;54726;52.000;5.954;2022-08-01T05:14:06;101300.63;;;17.31;98.06
67931;BME280;54726;52.000;5.954;2022-08-01T05:15:08;101300.63;;;17.31;98.03
67931;BME280;54726;52.000;5.954;2022-08-01T05:16:08;101310.41;;;17.32;98.06
67931;BME280;54726;52.000;5.954;2022-08-01T05:17:09;101309.44;;;17.33;98.11
67931;BME280;54726;52.000;5.954;2022-08-01T05:18:10;101306.69;;;17.34;98.13
67931;BME280;54726;52.000;5.954;2022-08-01T05:19:11;101308.41;;;17.35;98.33
67931;BME280;54726;52.000;5.954;2022-08-01T05:20:11;101304.09;;;17.33;98.44
67931;BME280;54726;52.000;5.954;2022-08-01T05:21:12;101309.56;;;17.31;98.05
67931;BME280;54726;52.000;5.954;2022-08-01T05:22:13;101298.13;;;17.28;98.46
67931;BME280;54726;52.000;5.954;2022-08-01T05:23:14;101304.09;;;17.33;98.12
67931;BME280;54726;52.000;5.954;2022-08-01T05:24:14;101296.81;;;17.35;98.16
67931;BME280;54726;52.000;5.954;2022-08-01T05:25:15;101302.38;;;17.32;98.23
67931;BME280;54726;52.000;5.954;2022-08-01T05:26:15;101296.72;;;17.36;98.07
67931;BME280;54726;52.000;5.954;2022-08-01T05:27:16;101298.34;;;17.39;98.39